Time;durP1;ratioP1;P1;durP2;ratioP2;P2;SDS_P1;SDS_P2;PMS_P1;PMS_P2;Temp;Humidity;BMP_temperature;BMP_pressure;BME280_temperature;BME280_humidity;BME280_pressure;Samples;Min_cycle;Max_cycle;Signal;HPM_P1;HPM_P2
2022/03/15 00:00:39;;;;;;;20.50;14.35;;;11.20;96.80;;;;;;5033145;28;20033;-63
2022/03/15 00:03:04;;;;;;;20.73;13.25;;;11.10;96.80;;;;;;5027718;28;20033;-64
2022/03/15 00:05:30;;;;;;;21.45;14.07;;;11.20;96.90;;;;;;5031979;28;20052;-63
2022/03/15 00:07:56;;;;;;;19.98;13.95;;;11.10;96.80;;;;;;5020625;28;20508;-63
2022/03/15 00:10:22;;;;;;;19.33;13.80;;;11.10;96.80;;;;;;5013890;28;20119;-63
2022/03/15 00:12:48;;;;;;;21.67;13.88;;;11.20;96.80;;;;;;5027133;28;20083;-63
2022/03/15 00:15:14;;;;;;;20.92;13.82;;;11.20;96.90;;;;;;5026850;28;20018;-63
2022/03/15 00:17:41;;;;;;;23.30;13.80;;;11.20;96.90;;;;;;5033013;28;20037;-64
2022/03/15 00:20:10;;;;;;;21.23;13.98;;;11.20;96.90;;;;;;5032417;28;20025;-63
2022/03/15 00:22:36;;;;;;;20.17;13.85;;;11.10;96.90;;;;;;5028461;28;20041;-63
2022/03/15 00:25:04;;;;;;;20.10;13.77;;;11.10;96.90;;;;;;5029067;28;20026;-63
2022/03/15 00:27:30;;;;;;;21.52;13.70;;;11.10;96.90;;;;;;5030482;28;20033;-63
2022/03/15 00:29:56;;;;;;;21.15;12.98;;;11.10;96.90;;;;;;5032728;28;20424;-63
2022/03/15 00:32:23;;;;;;;21.00;13.18;;;11.10;96.90;;;;;;5019334;28;20030;-63
2022/03/15 00:34:49;;;;;;;19.70;14.15;;;11.10;96.90;;;;;;5030253;28;20124;-63
2022/03/15 00:37:14;;;;;;;21.77;14.63;;;11.10;96.90;;;;;;5029098;28;20160;-63
2022/03/15 00:39:41;;;;;;;20.92;14.05;;;11.00;96.80;;;;;;5032534;28;20033;-63
2022/03/15 00:42:07;;;;;;;22.17;13.27;;;11.10;96.90;;;;;;5031998;28;20040;-64
2022/03/15 00:44:32;;;;;;;23.13;13.68;;;11.00;96.80;;;;;;5016501;28;20030;-63
2022/03/15 00:46:58;;;;;;;21.45;13.80;;;11.00;96.80;;;;;;5013630;28;20025;-63
2022/03/15 00:49:23;;;;;;;22.63;13.80;;;11.00;96.80;;;;;;5026841;28;20489;-63
2022/03/15 00:51:50;;;;;;;23.77;14.77;;;11.00;96.80;;;;;;5025098;28;20029;-64
2022/03/15 00:54:16;;;;;;;20.33;13.88;;;11.00;96.80;;;;;;5030012;28;20025;-63
2022/03/15 00:56:41;;;;;;;23.42;14.90;;;10.90;96.90;;;;;;5031088;28;20524;-63
2022/03/15 00:59:08;;;;;;;20.00;14.05;;;10.90;96.90;;;;;;5013020;28;20033;-64
2022/03/15 01:01:34;;;;;;;19.40;12.98;;;10.90;96.90;;;;;;5022682;28;20123;-63
2022/03/15 01:03:59;;;;;;;20.38;12.55;;;11.00;96.90;;;;;;5032270;28;20076;-63
2022/03/15 01:06:24;;;;;;;22.88;14.60;;;10.90;96.90;;;;;;5031921;28;20510;-63
2022/03/15 01:08:50;;;;;;;21.73;14.13;;;10.90;96.90;;;;;;5018081;28;20037;-63
2022/03/15 01:11:15;;;;;;;20.73;13.18;;;10.90;97.00;;;;;;5023074;28;20077;-63
2022/03/15 01:13:41;;;;;;;23.20;13.45;;;10.90;97.00;;;;;;5013085;28;20041;-63
2022/03/15 01:16:07;;;;;;;21.42;13.68;;;10.90;97.00;;;;;;5019122;28;20041;-64
2022/03/15 01:18:34;;;;;;;22.20;13.65;;;10.90;97.20;;;;;;5030452;28;20036;-63
2022/03/15 01:20:59;;;;;;;23.75;14.00;;;10.90;97.00;;;;;;5027995;28;20018;-63
2022/03/15 01:23:25;;;;;;;20.80;13.07;;;10.80;96.90;;;;;;5032387;28;20033;-63
2022/03/15 01:25:50;;;;;;;19.30;12.52;;;10.80;96.90;;;;;;5022398;28;20108;-64
2022/03/15 01:28:16;;;;;;;23.02;13.52;;;10.80;96.90;;;;;;5011374;28;20034;-63
2022/03/15 01:30:41;;;;;;;20.23;13.95;;;10.80;96.90;;;;;;5012626;28;20014;-62
2022/03/15 01:33:07;;;;;;;21.92;13.35;;;10.80;96.90;;;;;;5013012;28;20030;-63
2022/03/15 01:35:32;;;;;;;22.15;13.10;;;10.70;96.90;;;;;;5017031;28;20084;-63
2022/03/15 01:37:58;;;;;;;25.48;13.80;;;10.70;96.90;;;;;;5015069;28;20485;-63
2022/03/15 01:40:23;;;;;;;22.13;13.38;;;10.70;96.90;;;;;;5031235;28;20033;-64
2022/03/15 01:42:49;;;;;;;21.85;13.93;;;10.60;96.90;;;;;;5030204;28;20071;-63
2022/03/15 01:45:15;;;;;;;21.75;14.48;;;10.60;96.90;;;;;;5020097;28;20068;-63
2022/03/15 01:47:42;;;;;;;21.65;13.93;;;10.50;96.90;;;;;;5031064;28;20444;-63
2022/03/15 01:50:08;;;;;;;23.48;13.88;;;10.50;96.90;;;;;;5031571;28;20037;-63
2022/03/15 01:52:34;;;;;;;21.63;12.82;;;10.50;97.00;;;;;;5012578;28;20335;-63
2022/03/15 01:54:59;;;;;;;23.35;13.88;;;10.50;97.00;;;;;;5027129;28;20033;-63
2022/03/15 01:57:25;;;;;;;22.02;13.07;;;10.50;97.00;;;;;;5029769;28;20100;-62
2022/03/15 01:59:50;;;;;;;23.63;13.60;;;10.50;97.00;;;;;;5029488;28;20116;-63
2022/03/15 02:02:17;;;;;;;22.17;14.20;;;10.40;97.30;;;;;;5029713;28;20056;-63
2022/03/15 02:04:42;;;;;;;24.38;13.88;;;10.40;97.20;;;;;;5012351;28;20050;-63
2022/03/15 02:07:13;;;;;;;23.73;13.45;;;10.40;97.20;;;;;;5026602;28;20033;-63
2022/03/15 02:09:38;;;;;;;23.77;14.25;;;10.40;97.30;;;;;;5013340;28;20037;-64
2022/03/15 02:12:04;;;;;;;20.13;13.50;;;10.40;97.30;;;;;;5022446;28;20441;-63
2022/03/15 02:14:30;;;;;;;20.23;13.10;;;10.40;97.40;;;;;;5020493;28;20028;-63
2022/03/15 02:16:56;;;;;;;21.05;13.38;;;10.40;97.40;;;;;;5021524;28;20026;-63
2022/03/15 02:19:23;;;;;;;23.65;14.07;;;10.50;97.40;;;;;;5011536;28;20022;-63
2022/03/15 02:21:49;;;;;;;23.58;12.70;;;10.50;97.50;;;;;;5023233;28;20033;-63
2022/03/15 02:24:16;;;;;;;20.48;12.82;;;10.50;97.50;;;;;;5031529;28;20080;-63
2022/03/15 02:26:42;;;;;;;22.98;13.52;;;10.50;97.50;;;;;;5029751;28;20188;-63
2022/03/15 02:29:08;;;;;;;22.85;14.98;;;10.50;97.50;;;;;;5029665;28;20072;-64
2022/03/15 02:31:33;;;;;;;23.52;14.07;;;10.50;97.50;;;;;;5020246;28;20069;-63
2022/03/15 02:33:59;;;;;;;23.77;14.30;;;10.50;97.40;;;;;;5011044;28;20040;-63
2022/03/15 02:36:24;;;;;;;21.83;13.77;;;10.50;97.40;;;;;;5012110;28;20112;-63
2022/03/15 02:38:50;;;;;;;22.00;14.15;;;10.50;97.40;;;;;;5011935;28;20025;-63
2022/03/15 02:41:15;;;;;;;23.27;14.50;;;10.50;97.40;;;;;;5019338;28;20041;-64
2022/03/15 02:43:43;;;;;;;22.48;13.18;;;10.40;97.40;;;;;;5028416;28;20504;-63
2022/03/15 02:46:09;;;;;;;27.10;15.27;;;10.50;97.40;;;;;;5011312;28;20018;-63
2022/03/15 02:48:35;;;;;;;26.25;15.15;;;10.40;97.40;;;;;;5011056;28;20105;-63
2022/03/15 02:51:04;;;;;;;23.60;14.43;;;10.40;97.40;;;;;;5016695;28;20083;-63
2022/03/15 02:53:30;;;;;;;21.60;13.93;;;10.40;97.50;;;;;;5030870;28;20025;-63
2022/03/15 02:55:55;;;;;;;23.83;15.20;;;10.40;97.50;;;;;;5017760;28;20082;-63
2022/03/15 02:58:21;;;;;;;24.27;14.30;;;10.40;97.50;;;;;;5030964;28;20064;-63
2022/03/15 03:00:47;;;;;;;22.63;14.00;;;10.40;97.50;;;;;;5021548;28;20014;-63
2022/03/15 03:03:12;;;;;;;23.88;14.30;;;10.40;97.50;;;;;;5030318;28;20136;-63
2022/03/15 03:05:39;;;;;;;23.65;15.52;;;10.40;97.50;;;;;;5021236;28;20057;-63
2022/03/15 03:08:05;;;;;;;25.23;14.25;;;10.50;97.50;;;;;;5030653;28;20048;-63
2022/03/15 03:10:31;;;;;;;26.02;15.77;;;10.40;97.50;;;;;;5028124;28;20045;-63
2022/03/15 03:12:57;;;;;;;23.58;15.40;;;10.40;97.40;;;;;;5030721;28;20030;-63
2022/03/15 03:15:23;;;;;;;21.48;14.23;;;10.40;97.40;;;;;;5017256;28;20026;-63
2022/03/15 03:17:49;;;;;;;25.77;14.38;;;10.40;97.40;;;;;;5030387;28;20113;-63
2022/03/15 03:20:19;;;;;;;21.20;14.43;;;10.40;97.40;;;;;;5019173;28;20106;-63
2022/03/15 03:22:49;;;;;;;22.17;14.68;;;10.40;97.40;;;;;;5011215;28;20477;-63
2022/03/15 03:25:15;;;;;;;24.40;14.38;;;10.30;97.60;;;;;;5011405;28;20042;-63
2022/03/15 03:27:41;;;;;;;24.67;14.38;;;10.30;97.40;;;;;;5029653;28;20030;-63
2022/03/15 03:30:07;;;;;;;29.73;15.65;;;10.30;97.40;;;;;;5015654;28;20041;-63
2022/03/15 03:32:34;;;;;;;24.55;14.68;;;10.20;97.40;;;;;;5026299;28;20509;-63
2022/03/15 03:35:04;;;;;;;23.38;15.02;;;10.20;97.40;;;;;;5025747;28;20116;-63
2022/03/15 03:37:30;;;;;;;25.50;16.27;;;10.10;97.40;;;;;;5012730;28;20026;-63
2022/03/15 03:39:55;;;;;;;28.63;16.23;;;10.10;97.50;;;;;;5030505;28;20026;-63
2022/03/15 03:42:21;;;;;;;25.95;15.13;;;10.10;97.50;;;;;;5028575;28;20505;-63
2022/03/15 03:44:46;;;;;;;26.30;15.77;;;10.00;97.50;;;;;;5029980;28;20129;-63
2022/03/15 03:47:12;;;;;;;26.08;15.68;;;10.00;97.50;;;;;;5029335;28;20056;-63
2022/03/15 03:49:38;;;;;;;27.40;16.08;;;10.00;97.50;;;;;;5030450;28;20029;-63
2022/03/15 03:52:05;;;;;;;28.65;15.60;;;9.90;97.50;;;;;;5012979;28;20481;-63
2022/03/15 03:54:31;;;;;;;28.77;15.80;;;9.90;97.50;;;;;;5010761;28;20037;-63
2022/03/15 03:56:57;;;;;;;26.65;15.05;;;9.80;97.60;;;;;;5024330;28;20073;-62
2022/03/15 03:59:23;;;;;;;27.73;16.27;;;9.70;97.50;;;;;;5030236;28;20139;-62
2022/03/15 04:01:49;;;;;;;31.10;17.40;;;9.70;97.60;;;;;;5027530;28;20056;-62
2022/03/15 04:04:14;;;;;;;26.95;16.60;;;9.60;97.60;;;;;;5029987;28;20461;-63
2022/03/15 04:06:40;;;;;;;26.17;16.80;;;9.60;97.70;;;;;;5030748;28;20444;-63
2022/03/15 04:09:06;;;;;;;25.80;16.25;;;9.50;97.70;;;;;;5033378;28;20040;-63
2022/03/15 04:11:32;;;;;;;25.48;15.77;;;9.50;97.70;;;;;;5031778;28;20112;-62
2022/03/15 04:14:03;;;;;;;28.48;16.20;;;9.40;97.70;;;;;;5028666;28;20117;-63
2022/03/15 04:16:29;;;;;;;29.25;16.80;;;9.40;97.80;;;;;;5027379;28;20404;-63
2022/03/15 04:18:55;;;;;;;25.45;16.58;;;9.40;97.80;;;;;;5030209;28;20030;-63
2022/03/15 04:21:24;;;;;;;25.60;16.42;;;9.40;97.80;;;;;;5022331;28;20484;-63
2022/03/15 04:23:55;;;;;;;25.95;15.75;;;9.30;97.80;;;;;;5029494;28;20030;-63
2022/03/15 04:26:24;;;;;;;28.38;17.02;;;9.30;98.00;;;;;;5014736;28;20034;-64
2022/03/15 04:28:50;;;;;;;29.67;17.17;;;9.20;98.00;;;;;;5033578;28;20040;-63
2022/03/15 04:31:17;;;;;;;28.60;17.80;;;9.20;98.00;;;;;;5019905;28;20425;-63
2022/03/15 04:33:42;;;;;;;30.63;19.40;;;9.20;98.00;;;;;;5013525;28;20489;-63
2022/03/15 04:36:08;;;;;;;29.70;17.05;;;9.20;98.00;;;;;;5014388;28;20034;-63
2022/03/15 04:38:34;;;;;;;28.65;16.85;;;9.20;98.10;;;;;;5013635;28;20477;-63
2022/03/15 04:41:00;;;;;;;24.05;15.18;;;9.10;98.10;;;;;;5016423;28;21821;-63
2022/03/15 04:43:26;;;;;;;25.45;16.73;;;9.20;98.10;;;;;;5033334;28;20030;-63
2022/03/15 04:45:52;;;;;;;30.35;17.15;;;9.20;98.10;;;;;;5024356;28;20056;-63
2022/03/15 04:48:20;;;;;;;31.98;18.02;;;9.10;98.10;;;;;;5032196;28;20128;-63
2022/03/15 04:50:46;;;;;;;26.80;17.38;;;9.10;98.20;;;;;;5024497;28;20033;-63
2022/03/15 04:53:11;;;;;;;28.27;16.73;;;9.10;98.20;;;;;;5032755;28;20509;-63
2022/03/15 04:55:37;;;;;;;31.40;17.92;;;9.10;98.20;;;;;;5025147;28;20029;-63
2022/03/15 04:58:03;;;;;;;25.08;17.15;;;9.10;98.20;;;;;;5032963;28;20036;-63
2022/03/15 05:00:28;;;;;;;28.40;17.38;;;9.10;98.30;;;;;;5029757;28;20075;-63
2022/03/15 05:02:54;;;;;;;26.95;17.25;;;9.10;98.30;;;;;;5032035;28;20034;-63
2022/03/15 05:05:19;;;;;;;28.00;17.48;;;9.10;98.30;;;;;;5031171;28;20032;-64
2022/03/15 05:07:45;;;;;;;23.83;16.10;;;9.00;98.20;;;;;;5032428;28;20055;-63
2022/03/15 05:12:55;;;;;;;28.55;16.73;;;9.00;98.20;;;;;;5016519;28;20025;-63
2022/03/15 05:15:20;;;;;;;27.75;16.88;;;9.00;98.20;;;;;;5031128;28;20495;-62
2022/03/15 05:17:46;;;;;;;31.83;18.33;;;9.00;98.30;;;;;;5012262;28;20042;-62
2022/03/15 05:20:12;;;;;;;27.60;17.33;;;9.00;98.30;;;;;;5012147;28;20025;-62
2022/03/15 05:22:37;;;;;;;30.15;18.13;;;8.90;98.30;;;;;;5031564;28;20041;-63
2022/03/15 05:25:04;;;;;;;31.00;17.73;;;9.00;98.30;;;;;;5030969;28;20049;-64
2022/03/15 05:27:33;;;;;;;28.42;16.80;;;9.00;98.30;;;;;;5029441;28;20046;-64
2022/03/15 05:29:59;;;;;;;30.40;17.27;;;8.90;98.30;;;;;;5032131;28;20029;-65
2022/03/15 05:32:25;;;;;;;27.90;16.98;;;9.00;98.30;;;;;;5013757;28;20116;-63
2022/03/15 05:34:51;;;;;;;28.92;17.65;;;9.00;98.30;;;;;;5020123;28;20104;-65
2022/03/15 05:37:16;;;;;;;29.17;17.52;;;8.90;98.20;;;;;;5013519;28;20026;-65
2022/03/15 05:39:43;;;;;;;33.38;18.60;;;8.90;98.20;;;;;;5030045;28;20626;-65
2022/03/15 05:42:10;;;;;;;33.85;18.15;;;8.90;98.20;;;;;;5030031;28;20029;-65
2022/03/15 05:44:36;;;;;;;30.77;19.48;;;8.90;98.20;;;;;;5031703;28;20033;-66
2022/03/15 05:47:01;;;;;;;33.33;20.00;;;8.80;98.20;;;;;;5030516;28;20025;-64
2022/03/15 05:49:27;;;;;;;31.67;18.80;;;8.80;98.20;;;;;;5031071;28;20041;-65
2022/03/15 05:51:52;;;;;;;29.85;18.77;;;8.70;98.30;;;;;;5029966;28;20033;-65
2022/03/15 05:54:18;;;;;;;32.15;18.25;;;8.70;98.30;;;;;;5031358;28;20036;-65
2022/03/15 05:56:44;;;;;;;32.15;18.50;;;8.70;98.30;;;;;;5018368;28;20029;-65
2022/03/15 05:59:10;;;;;;;30.15;17.80;;;8.80;98.40;;;;;;5012039;28;20026;-65
2022/03/15 06:01:35;;;;;;;30.17;18.83;;;8.80;98.40;;;;;;5013843;28;20040;-64
2022/03/15 06:04:01;;;;;;;28.95;17.52;;;8.80;98.40;;;;;;5020060;28;20080;-64
2022/03/15 06:06:26;;;;;;;32.97;20.45;;;8.80;98.50;;;;;;5022032;28;20053;-66
2022/03/15 06:08:52;;;;;;;28.75;18.02;;;8.80;98.50;;;;;;5023947;28;20030;-66
2022/03/15 06:11:19;;;;;;;35.75;19.85;;;8.80;98.50;;;;;;5022249;28;20026;-65
2022/03/15 06:13:45;;;;;;;33.42;19.08;;;8.80;98.50;;;;;;5012182;28;20104;-68
2022/03/15 06:16:11;;;;;;;34.13;18.17;;;8.90;98.60;;;;;;5020705;28;20164;-68
2022/03/15 06:18:37;;;;;;;31.77;18.55;;;8.90;98.60;;;;;;5026546;28;20046;-67
2022/03/15 06:21:03;;;;;;;30.05;17.33;;;8.90;98.50;;;;;;5020618;28;20025;-67
2022/03/15 06:23:29;;;;;;;29.70;18.08;;;9.00;98.50;;;;;;5027713;28;20037;-68
2022/03/15 06:25:54;;;;;;;31.88;18.05;;;9.00;98.50;;;;;;5023969;28;20021;-66
2022/03/15 06:28:20;;;;;;;28.90;17.92;;;9.00;98.50;;;;;;5019223;28;20396;-68
2022/03/15 06:30:45;;;;;;;28.90;18.35;;;9.00;98.40;;;;;;5023213;28;20017;-67
2022/03/15 06:33:11;;;;;;;27.33;17.15;;;9.10;98.40;;;;;;5017846;28;20025;-68
2022/03/15 06:35:36;;;;;;;26.77;16.27;;;9.10;98.40;;;;;;5026526;28;20049;-67
2022/03/15 06:38:02;;;;;;;30.65;18.13;;;9.10;98.40;;;;;;5030859;28;20040;-67
2022/03/15 06:40:29;;;;;;;28.65;17.83;;;9.20;98.30;;;;;;5030119;28;20108;-67
2022/03/15 06:42:55;;;;;;;26.40;16.80;;;9.20;98.30;;;;;;5011131;28;20057;-67
2022/03/15 06:45:22;;;;;;;27.15;16.40;;;9.30;98.30;;;;;;5018169;28;20420;-67
2022/03/15 06:47:48;;;;;;;28.75;17.65;;;9.30;98.20;;;;;;5020657;28;20124;-67
2022/03/15 06:50:15;;;;;;;27.98;17.33;;;9.30;98.40;;;;;;5024245;28;20025;-67
2022/03/15 06:52:42;;;;;;;29.33;16.92;;;9.40;98.20;;;;;;5012388;28;20041;-67
2022/03/15 06:55:09;;;;;;;28.02;17.00;;;9.40;98.20;;;;;;5011517;28;20030;-68
2022/03/15 06:57:34;;;;;;;26.95;17.75;;;9.40;98.10;;;;;;5028516;28;20473;-67
2022/03/15 07:00:08;;;;;;;27.58;16.35;;;9.40;98.10;;;;;;5009706;28;20080;-67
2022/03/15 07:02:33;;;;;;;30.58;17.85;;;9.40;98.10;;;;;;5027791;28;20641;-67
2022/03/15 07:04:59;;;;;;;28.33;16.23;;;9.50;98.00;;;;;;5017846;28;20041;-68
2022/03/15 07:07:24;;;;;;;27.33;17.75;;;9.50;98.00;;;;;;5015264;28;20132;-68
2022/03/15 07:09:50;;;;;;;26.50;16.70;;;9.50;98.00;;;;;;5018625;28;20044;-67
2022/03/15 07:12:16;;;;;;;26.02;16.73;;;9.50;97.90;;;;;;5026417;28;20457;-67
2022/03/15 07:14:43;;;;;;;28.33;16.77;;;9.60;97.90;;;;;;5015498;28;20552;-67
2022/03/15 07:17:08;;;;;;;28.10;17.20;;;9.60;97.80;;;;;;5020390;28;20044;-67
2022/03/15 07:19:34;;;;;;;28.95;17.63;;;9.70;97.80;;;;;;5018318;28;20532;-67
2022/03/15 07:21:59;;;;;;;28.55;17.38;;;9.70;97.70;;;;;;5028223;28;20029;-68
2022/03/15 07:24:25;;;;;;;28.23;17.50;;;9.70;97.60;;;;;;5044342;28;20028;-68
2022/03/15 07:26:51;;;;;;;28.45;17.42;;;9.70;97.60;;;;;;5025518;28;20021;-68
2022/03/15 07:29:16;;;;;;;28.42;17.75;;;9.70;97.60;;;;;;5039304;28;20048;-68
2022/03/15 07:31:42;;;;;;;29.25;18.52;;;9.80;97.60;;;;;;5013361;28;20032;-68
2022/03/15 07:34:07;;;;;;;30.42;17.23;;;9.80;97.60;;;;;;5016148;28;20029;-68
2022/03/15 07:36:35;;;;;;;27.85;17.88;;;9.80;97.50;;;;;;5019173;28;20030;-68
2022/03/15 07:39:00;;;;;;;26.58;17.50;;;9.80;97.50;;;;;;5029128;28;20136;-68
2022/03/15 07:41:26;;;;;;;30.25;18.33;;;9.80;97.50;;;;;;5026431;28;20112;-68
2022/03/15 07:43:51;;;;;;;31.02;18.23;;;9.80;97.50;;;;;;5032286;28;20034;-68
2022/03/15 07:46:17;;;;;;;29.38;18.85;;;9.90;97.50;;;;;;5030474;28;20044;-67
2022/03/15 07:48:42;;;;;;;27.67;17.83;;;9.90;97.50;;;;;;5025620;28;20107;-67
2022/03/15 07:51:08;;;;;;;32.15;19.13;;;9.90;97.50;;;;;;5028617;28;20030;-67
2022/03/15 07:53:33;;;;;;;31.95;20.92;;;10.00;97.80;;;;;;5030565;28;20029;-67
2022/03/15 07:56:00;;;;;;;33.75;17.92;;;10.00;97.60;;;;;;5017866;28;20518;-67
2022/03/15 07:58:27;;;;;;;31.02;19.30;;;10.00;97.50;;;;;;5031774;28;20025;-67
2022/03/15 08:00:56;;;;;;;31.25;18.67;;;10.10;97.60;;;;;;5019979;28;20104;-68
2022/03/15 08:03:25;;;;;;;32.40;19.08;;;10.10;97.60;;;;;;5025213;28;20089;-68
2022/03/15 08:05:51;;;;;;;30.10;18.55;;;10.20;97.60;;;;;;5030591;28;20022;-68
2022/03/15 08:08:17;;;;;;;29.77;17.85;;;10.20;97.60;;;;;;5019291;28;20049;-68
2022/03/15 08:10:43;;;;;;;30.45;20.13;;;10.30;97.50;;;;;;5019693;28;20389;-68
2022/03/15 08:13:09;;;;;;;43.67;19.10;;;10.30;97.50;;;;;;5023085;28;20049;-67
2022/03/15 08:15:34;;;;;;;34.97;19.27;;;10.30;97.50;;;;;;5013421;28;20477;-67
2022/03/15 08:18:02;;;;;;;37.83;19.10;;;10.50;97.50;;;;;;5020554;28;20026;-67
2022/03/15 08:20:32;;;;;;;35.22;20.75;;;10.40;97.50;;;;;;5022215;28;20036;-68
2022/03/15 08:22:58;;;;;;;35.35;20.08;;;10.50;97.50;;;;;;5013633;28;20041;-68
2022/03/15 08:25:23;;;;;;;33.35;20.20;;;10.50;97.40;;;;;;5022780;28;20525;-68
2022/03/15 08:27:49;;;;;;;39.55;20.90;;;10.60;97.40;;;;;;5028540;28;20065;-68
2022/03/15 08:30:14;;;;;;;33.30;19.67;;;10.60;97.40;;;;;;5013640;28;20061;-67
2022/03/15 08:32:40;;;;;;;32.50;18.42;;;10.60;97.50;;;;;;5027836;28;20057;-68
2022/03/15 08:35:06;;;;;;;44.63;21.27;;;10.70;97.50;;;;;;5031379;28;20033;-65
2022/03/15 08:37:31;;;;;;;35.47;19.67;;;10.80;97.50;;;;;;5020453;28;20040;-66
2022/03/15 08:39:59;;;;;;;39.08;20.65;;;10.80;97.50;;;;;;5027120;28;20029;-67
2022/03/15 08:42:24;;;;;;;43.03;20.83;;;10.90;97.40;;;;;;5029543;28;20093;-67
2022/03/15 08:44:50;;;;;;;34.55;20.55;;;11.00;97.30;;;;;;5029429;28;20025;-66
2022/03/15 08:47:15;;;;;;;36.47;20.75;;;11.10;97.20;;;;;;5030109;28;20083;-67
2022/03/15 08:49:43;;;;;;;41.78;22.27;;;11.10;97.20;;;;;;5023469;28;20418;-66
2022/03/15 08:52:09;;;;;;;43.70;20.27;;;11.20;97.20;;;;;;5030496;28;20380;-67
2022/03/15 08:54:36;;;;;;;28.75;19.17;;;11.30;97.10;;;;;;5029897;28;20082;-66
2022/03/15 08:57:01;;;;;;;35.38;21.67;;;11.30;97.10;;;;;;5015976;28;20069;-66
2022/03/15 08:59:27;;;;;;;39.80;20.90;;;11.30;97.10;;;;;;5021096;28;20061;-66
2022/03/15 09:01:52;;;;;;;36.15;20.23;;;11.40;97.10;;;;;;5015543;28;20100;-66
2022/03/15 09:04:18;;;;;;;36.85;20.75;;;11.40;97.10;;;;;;5011355;28;20060;-67
2022/03/15 09:06:44;;;;;;;35.35;20.23;;;11.50;97.00;;;;;;5005167;28;20053;-67
2022/03/15 09:09:09;;;;;;;46.90;20.50;;;11.50;97.00;;;;;;5008841;28;20041;-67
2022/03/15 09:11:35;;;;;;;50.10;21.50;;;11.60;97.00;;;;;;5010386;28;20092;-67
2022/03/15 09:14:01;;;;;;;45.88;20.10;;;11.60;97.00;;;;;;5006989;28;20474;-66
2022/03/15 09:16:27;;;;;;;34.10;18.02;;;11.70;96.90;;;;;;5003674;28;20026;-67
2022/03/15 09:18:53;;;;;;;38.25;19.10;;;11.80;96.80;;;;;;4994572;28;20076;-66
2022/03/15 09:21:18;;;;;;;37.80;19.75;;;11.90;96.70;;;;;;5003824;28;20046;-66
2022/03/15 09:23:45;;;;;;;35.60;19.52;;;12.00;96.60;;;;;;5004914;28;20030;-66
2022/03/15 09:26:10;;;;;;;31.15;18.48;;;12.00;96.60;;;;;;5006081;28;20030;-66
2022/03/15 09:28:37;;;;;;;34.63;19.05;;;12.00;96.60;;;;;;5001905;28;20038;-66
2022/03/15 09:31:03;;;;;;;33.25;18.25;;;12.20;96.50;;;;;;5008527;28;20436;-66
2022/03/15 09:33:29;;;;;;;34.33;19.40;;;12.20;96.50;;;;;;5015732;28;20026;-66
2022/03/15 09:35:55;;;;;;;29.48;18.85;;;12.30;96.50;;;;;;5009940;28;20168;-66
2022/03/15 09:38:21;;;;;;;26.83;17.67;;;12.30;96.40;;;;;;4999103;28;20099;-66
2022/03/15 09:40:50;;;;;;;30.80;18.77;;;12.50;96.30;;;;;;5004467;28;20023;-67
2022/03/15 09:43:19;;;;;;;28.70;17.73;;;12.50;96.20;;;;;;5006032;28;20030;-66
2022/03/15 09:45:45;;;;;;;28.90;18.35;;;12.50;96.20;;;;;;5003330;28;20172;-69
2022/03/15 09:48:17;;;;;;;31.90;17.27;;;12.60;96.00;;;;;;4995495;28;20038;-67
2022/03/15 09:50:47;;;;;;;38.72;19.23;;;12.70;95.90;;;;;;5009000;28;20037;-68
2022/03/15 09:53:13;;;;;;;28.02;16.13;;;12.70;95.70;;;;;;5007242;28;20474;-67
2022/03/15 09:55:40;;;;;;;29.92;17.30;;;12.80;95.70;;;;;;5000104;28;20034;-69
2022/03/15 09:58:06;;;;;;;28.33;16.10;;;12.80;95.60;;;;;;5010761;28;20038;-66
2022/03/15 10:00:31;;;;;;;25.63;15.55;;;12.90;95.50;;;;;;5002955;28;20100;-67
2022/03/15 10:02:57;;;;;;;27.55;16.55;;;13.00;95.40;;;;;;5009843;28;20077;-68
2022/03/15 10:05:24;;;;;;;26.17;14.63;;;13.00;95.40;;;;;;5009584;28;20105;-67
2022/03/15 10:07:50;;;;;;;31.45;16.27;;;13.10;95.20;;;;;;4992415;28;20030;-67
2022/03/15 10:10:16;;;;;;;28.60;15.98;;;13.20;95.20;;;;;;5005655;28;20648;-66
2022/03/15 10:12:41;;;;;;;23.45;16.02;;;13.20;95.10;;;;;;5009931;28;20022;-67
2022/03/15 10:15:16;;;;;;;28.67;16.55;;;13.30;95.10;;;;;;4995340;28;20137;-67
2022/03/15 10:17:53;;;;;;;36.15;18.10;;;13.30;94.90;;;;;;4998263;28;20049;-67
2022/03/15 10:20:28;;;;;;;35.53;18.00;;;13.40;94.80;;;;;;5009235;28;20030;-67
2022/03/15 10:23:00;;;;;;;28.50;16.25;;;13.50;94.70;;;;;;4998576;28;20031;-67
2022/03/15 10:25:29;;;;;;;27.05;17.00;;;13.60;94.60;;;;;;5007170;28;20040;-67
2022/03/15 10:28:02;;;;;;;29.60;17.40;;;13.60;94.50;;;;;;4994756;28;20085;-67
2022/03/15 10:30:30;;;;;;;40.00;18.77;;;13.70;94.30;;;;;;5008342;28;20034;-67
2022/03/15 10:32:56;;;;;;;33.53;17.17;;;13.90;94.30;;;;;;5006662;28;20032;-67
2022/03/15 10:35:24;;;;;;;26.83;15.80;;;14.00;94.10;;;;;;5009162;28;20072;-67
2022/03/15 10:37:51;;;;;;;26.08;15.50;;;14.00;94.00;;;;;;5010099;28;20037;-68
2022/03/15 10:40:18;;;;;;;29.42;16.75;;;14.10;93.80;;;;;;5010349;28;20367;-67
2022/03/15 10:42:46;;;;;;;23.95;15.20;;;14.20;93.70;;;;;;5010458;28;20421;-67
2022/03/15 10:45:22;;;;;;;31.00;17.27;;;14.30;93.50;;;;;;5008307;28;20037;-67
2022/03/15 10:47:50;;;;;;;27.25;15.63;;;14.40;93.30;;;;;;4990558;28;20034;-66
2022/03/15 10:50:19;;;;;;;26.33;16.42;;;14.50;93.30;;;;;;5001314;28;20041;-66
2022/03/15 10:52:45;;;;;;;28.92;16.27;;;14.60;93.20;;;;;;5009256;28;20481;-66
2022/03/15 10:55:15;;;;;;;24.15;15.23;;;14.60;92.90;;;;;;5007346;28;20072;-66
2022/03/15 10:57:51;;;;;;;29.02;15.77;;;14.70;92.70;;;;;;5007579;28;20033;-66
2022/03/15 11:00:19;;;;;;;27.50;15.40;;;14.70;92.60;;;;;;4990914;28;20038;-66
2022/03/15 11:02:47;;;;;;;27.83;14.80;;;14.80;92.60;;;;;;5008382;28;20068;-66
2022/03/15 11:05:23;;;;;;;24.02;14.52;;;14.80;92.40;;;;;;5005296;28;20038;-65
2022/03/15 11:07:49;;;;;;;29.25;15.13;;;14.80;92.10;;;;;;5007795;28;20091;-66
2022/03/15 11:10:14;;;;;;;35.45;18.48;;;14.80;92.10;;;;;;5005575;28;20084;-66
2022/03/15 11:12:59;;;;;;;25.80;15.45;;;14.90;92.10;;;;;;4993494;28;20482;-66
2022/03/15 11:15:30;;;;;;;24.88;14.50;;;15.00;91.90;;;;;;5007320;28;20038;-66
2022/03/15 11:17:58;;;;;;;28.02;14.63;;;15.00;91.70;;;;;;5014053;28;20045;-66
2022/03/15 11:20:25;;;;;;;23.92;14.13;;;15.10;91.50;;;;;;5006853;28;20065;-66
2022/03/15 11:22:52;;;;;;;23.90;14.18;;;15.00;91.30;;;;;;5005423;28;20030;-66
2022/03/15 11:25:20;;;;;;;26.10;14.60;;;15.10;91.40;;;;;;5008307;28;20088;-66
2022/03/15 11:27:51;;;;;;;27.02;15.25;;;15.10;91.10;;;;;;5006863;28;20034;-66
2022/03/15 11:30:19;;;;;;;27.30;14.52;;;15.20;90.80;;;;;;5005559;28;20042;-66
2022/03/15 11:32:45;;;;;;;26.30;14.55;;;15.10;90.80;;;;;;4994173;28;20047;-66
2022/03/15 11:35:12;;;;;;;23.23;14.55;;;15.20;90.70;;;;;;5012824;28;20076;-66
2022/03/15 11:37:39;;;;;;;24.58;14.07;;;15.30;90.60;;;;;;5014136;28;20026;-66
2022/03/15 11:40:08;;;;;;;27.58;14.77;;;15.30;90.50;;;;;;5001128;28;20049;-66
2022/03/15 11:42:35;;;;;;;23.17;13.77;;;15.30;90.50;;;;;;4995538;28;20084;-66
2022/03/15 11:45:36;;;;;;;22.58;13.48;;;15.30;90.40;;;;;;5011876;28;20030;-66
2022/03/15 11:48:34;;;;;;;21.88;13.88;;;15.40;90.40;;;;;;4995298;28;20078;-67
2022/03/15 11:51:23;;;;;;;24.13;13.63;;;15.40;90.30;;;;;;5006270;28;20455;-66
2022/03/15 11:54:14;;;;;;;27.00;14.38;;;15.50;90.10;;;;;;5017010;28;20033;-66
2022/03/15 11:57:03;;;;;;;23.80;13.63;;;15.50;90.00;;;;;;5012331;28;20396;-66
2022/03/15 11:59:49;;;;;;;25.60;14.32;;;15.60;89.40;;;;;;5018731;28;20126;-66
2022/03/15 12:02:27;;;;;;;20.15;13.48;;;15.70;88.60;;;;;;5020821;28;20420;-66
2022/03/15 12:04:53;;;;;;;20.48;13.15;;;15.70;87.90;;;;;;5004482;28;20038;-67
2022/03/15 12:07:36;;;;;;;19.95;12.52;;;15.70;88.00;;;;;;5026688;28;20548;-67
2022/03/15 12:10:09;;;;;;;25.92;13.98;;;15.70;87.80;;;;;;5005106;28;20038;-65
2022/03/15 12:12:38;;;;;;;18.58;12.30;;;15.80;87.50;;;;;;5004879;28;20438;-66
2022/03/15 12:15:15;;;;;;;21.95;13.00;;;15.80;87.00;;;;;;5012351;28;20034;-65
2022/03/15 12:17:42;;;;;;;22.65;13.75;;;15.90;86.40;;;;;;5009546;28;20559;-65
2022/03/15 12:20:20;;;;;;;18.90;12.27;;;15.90;86.00;;;;;;5010947;28;20045;-66
2022/03/15 12:22:56;;;;;;;18.30;11.77;;;15.90;85.40;;;;;;5007825;28;20393;-67
2022/03/15 12:25:35;;;;;;;21.45;12.82;;;15.80;85.40;;;;;;5003994;28;20030;-66
2022/03/15 12:28:03;;;;;;;18.95;11.57;;;15.90;85.30;;;;;;5010929;28;20699;-67
2022/03/15 12:30:30;;;;;;;21.75;13.57;;;15.90;85.10;;;;;;5009469;28;20124;-67
2022/03/15 12:32:57;;;;;;;23.75;13.60;;;15.90;84.60;;;;;;4996264;28;20018;-66